sensor_id;sensor_type;location;lat;lon;timestamp;P1;durP1;ratioP1;P2;durP2;ratioP2
80776;SDS011;70169;51.262;6.336;2024-01-06T00:01:31;14.33;;;9.40;;
80776;SDS011;70169;51.262;6.336;2024-01-06T00:03:47;17.10;;;9.13;;
80776;SDS011;70169;51.262;6.336;2024-01-06T00:06:02;11.53;;;7.10;;
80776;SDS011;70169;51.262;6.336;2024-01-06T00:08:17;11.18;;;7.65;;
80776;SDS011;70169;51.262;6.336;2024-01-06T00:10:33;10.02;;;6.93;;
80776;SDS011;70169;51.262;6.336;2024-01-06T00:12:48;9.20;;;5.93;;
80776;SDS011;70169;51.262;6.336;2024-01-06T00:15:04;13.98;;;8.77;;
80776;SDS011;70169;51.262;6.336;2024-01-06T00:17:19;11.23;;;7.30;;
80776;SDS011;70169;51.262;6.336;2024-01-06T00:19:35;12.00;;;7.73;;
80776;SDS011;70169;51.262;6.336;2024-01-06T00:21:50;14.23;;;9.00;;
80776;SDS011;70169;51.262;6.336;2024-01-06T00:24:05;14.97;;;9.67;;
80776;SDS011;70169;51.262;6.336;2024-01-06T00:26:21;17.20;;;8.90;;
80776;SDS011;70169;51.262;6.336;2024-01-06T00:28:37;16.05;;;9.88;;
80776;SDS011;70169;51.262;6.336;2024-01-06T00:30:54;13.88;;;8.73;;
80776;SDS011;70169;51.262;6.336;2024-01-06T00:33:09;12.13;;;7.87;;
80776;SDS011;70169;51.262;6.336;2024-01-06T00:35:24;16.50;;;9.67;;
80776;SDS011;70169;51.262;6.336;2024-01-06T00:37:39;17.43;;;10.80;;
80776;SDS011;70169;51.262;6.336;2024-01-06T00:39:55;17.67;;;10.67;;
80776;SDS011;70169;51.262;6.336;2024-01-06T00:42:10;18.10;;;10.30;;
80776;SDS011;70169;51.262;6.336;2024-01-06T00:44:25;15.83;;;9.60;;
80776;SDS011;70169;51.262;6.336;2024-01-06T00:46:40;14.50;;;9.20;;
80776;SDS011;70169;51.262;6.336;2024-01-06T00:48:56;12.40;;;7.40;;
80776;SDS011;70169;51.262;6.336;2024-01-06T00:51:11;12.63;;;7.67;;
80776;SDS011;70169;51.262;6.336;2024-01-06T00:53:26;16.75;;;9.65;;
80776;SDS011;70169;51.262;6.336;2024-01-06T00:55:42;21.60;;;11.43;;
80776;SDS011;70169;51.262;6.336;2024-01-06T00:57:57;19.03;;;10.40;;
80776;SDS011;70169;51.262;6.336;2024-01-06T01:00:12;18.73;;;10.33;;
80776;SDS011;70169;51.262;6.336;2024-01-06T01:02:28;16.60;;;10.43;;
80776;SDS011;70169;51.262;6.336;2024-01-06T01:04:43;16.13;;;8.40;;
80776;SDS011;70169;51.262;6.336;2024-01-06T01:06:59;17.17;;;9.90;;
80776;SDS011;70169;51.262;6.336;2024-01-06T01:09:14;17.40;;;9.83;;
80776;SDS011;70169;51.262;6.336;2024-01-06T01:11:29;18.67;;;10.67;;
80776;SDS011;70169;51.262;6.336;2024-01-06T01:13:45;16.40;;;9.77;;
80776;SDS011;70169;51.262;6.336;2024-01-06T01:16:01;18.60;;;11.13;;
80776;SDS011;70169;51.262;6.336;2024-01-06T01:18:16;15.73;;;9.00;;
80776;SDS011;70169;51.262;6.336;2024-01-06T01:20:31;19.03;;;11.77;;
80776;SDS011;70169;51.262;6.336;2024-01-06T01:22:46;18.17;;;11.13;;
80776;SDS011;70169;51.262;6.336;2024-01-06T01:25:02;22.97;;;12.83;;
80776;SDS011;70169;51.262;6.336;2024-01-06T01:27:22;19.95;;;12.05;;
80776;SDS011;70169;51.262;6.336;2024-01-06T01:29:38;21.05;;;11.23;;
80776;SDS011;70169;51.262;6.336;2024-01-06T01:31:53;16.27;;;9.67;;
80776;SDS011;70169;51.262;6.336;2024-01-06T01:34:08;17.23;;;10.07;;
80776;SDS011;70169;51.262;6.336;2024-01-06T01:36:24;16.20;;;9.30;;
80776;SDS011;70169;51.262;6.336;2024-01-06T01:38:39;15.77;;;9.30;;
80776;SDS011;70169;51.262;6.336;2024-01-06T01:40:54;16.80;;;10.40;;
80776;SDS011;70169;51.262;6.336;2024-01-06T01:43:19;20.60;;;11.33;;
80776;SDS011;70169;51.262;6.336;2024-01-06T01:45:34;18.35;;;10.65;;
80776;SDS011;70169;51.262;6.336;2024-01-06T01:47:50;21.80;;;12.07;;
80776;SDS011;70169;51.262;6.336;2024-01-06T01:50:05;23.25;;;13.07;;
80776;SDS011;70169;51.262;6.336;2024-01-06T01:52:22;18.35;;;9.55;;
80776;SDS011;70169;51.262;6.336;2024-01-06T01:54:38;17.23;;;10.45;;
80776;SDS011;70169;51.262;6.336;2024-01-06T01:56:53;20.52;;;11.73;;
80776;SDS011;70169;51.262;6.336;2024-01-06T01:59:10;20.13;;;12.02;;
80776;SDS011;70169;51.262;6.336;2024-01-06T02:01:27;18.63;;;10.50;;
80776;SDS011;70169;51.262;6.336;2024-01-06T02:03:42;19.47;;;11.43;;
80776;SDS011;70169;51.262;6.336;2024-01-06T02:06:00;18.92;;;11.35;;
80776;SDS011;70169;51.262;6.336;2024-01-06T02:08:16;19.58;;;11.50;;
80776;SDS011;70169;51.262;6.336;2024-01-06T02:10:31;21.07;;;12.17;;
80776;SDS011;70169;51.262;6.336;2024-01-06T02:12:47;22.03;;;13.20;;
80776;SDS011;70169;51.262;6.336;2024-01-06T02:15:03;22.90;;;13.80;;
80776;SDS011;70169;51.262;6.336;2024-01-06T02:17:19;25.00;;;14.40;;
80776;SDS011;70169;51.262;6.336;2024-01-06T02:19:34;24.90;;;13.00;;
80776;SDS011;70169;51.262;6.336;2024-01-06T02:21:53;23.30;;;13.30;;
80776;SDS011;70169;51.262;6.336;2024-01-06T02:24:09;20.15;;;10.75;;
80776;SDS011;70169;51.262;6.336;2024-01-06T02:26:25;22.30;;;12.90;;
80776;SDS011;70169;51.262;6.336;2024-01-06T02:28:40;17.43;;;9.47;;
80776;SDS011;70169;51.262;6.336;2024-01-06T02:30:55;17.85;;;10.77;;
80776;SDS011;70169;51.262;6.336;2024-01-06T02:33:11;24.10;;;13.37;;
80776;SDS011;70169;51.262;6.336;2024-01-06T02:35:26;17.23;;;9.80;;
80776;SDS011;70169;51.262;6.336;2024-01-06T02:37:41;16.40;;;9.20;;
80776;SDS011;70169;51.262;6.336;2024-01-06T02:39:57;14.90;;;7.97;;
80776;SDS011;70169;51.262;6.336;2024-01-06T02:42:12;16.60;;;9.17;;
80776;SDS011;70169;51.262;6.336;2024-01-06T02:44:27;17.20;;;10.03;;
80776;SDS011;70169;51.262;6.336;2024-01-06T02:46:43;21.20;;;11.27;;
80776;SDS011;70169;51.262;6.336;2024-01-06T02:48:58;20.33;;;11.43;;
80776;SDS011;70169;51.262;6.336;2024-01-06T02:51:13;21.70;;;11.43;;
80776;SDS011;70169;51.262;6.336;2024-01-06T02:53:28;19.03;;;10.70;;
80776;SDS011;70169;51.262;6.336;2024-01-06T02:55:44;19.55;;;10.85;;
80776;SDS011;70169;51.262;6.336;2024-01-06T02:57:59;20.97;;;11.33;;
80776;SDS011;70169;51.262;6.336;2024-01-06T03:00:15;18.73;;;10.13;;
80776;SDS011;70169;51.262;6.336;2024-01-06T03:02:30;22.73;;;12.05;;
80776;SDS011;70169;51.262;6.336;2024-01-06T03:04:45;22.33;;;12.00;;
80776;SDS011;70169;51.262;6.336;2024-01-06T03:07:01;23.58;;;13.55;;
80776;SDS011;70169;51.262;6.336;2024-01-06T03:09:16;20.87;;;11.53;;
80776;SDS011;70169;51.262;6.336;2024-01-06T03:11:32;21.23;;;11.98;;
80776;SDS011;70169;51.262;6.336;2024-01-06T03:13:47;20.20;;;11.30;;
80776;SDS011;70169;51.262;6.336;2024-01-06T03:16:05;22.37;;;12.60;;
80776;SDS011;70169;51.262;6.336;2024-01-06T03:18:20;19.90;;;11.45;;
80776;SDS011;70169;51.262;6.336;2024-01-06T03:20:36;18.77;;;10.73;;
80776;SDS011;70169;51.262;6.336;2024-01-06T03:22:51;17.90;;;9.77;;
80776;SDS011;70169;51.262;6.336;2024-01-06T03:25:06;18.50;;;10.20;;
80776;SDS011;70169;51.262;6.336;2024-01-06T03:27:22;19.85;;;10.63;;
80776;SDS011;70169;51.262;6.336;2024-01-06T03:29:38;17.55;;;9.38;;
80776;SDS011;70169;51.262;6.336;2024-01-06T03:31:54;19.27;;;9.18;;
80776;SDS011;70169;51.262;6.336;2024-01-06T03:34:09;14.20;;;7.77;;
80776;SDS011;70169;51.262;6.336;2024-01-06T03:36:26;13.27;;;7.88;;
80776;SDS011;70169;51.262;6.336;2024-01-06T03:38:41;17.33;;;9.03;;
80776;SDS011;70169;51.262;6.336;2024-01-06T03:40:56;16.73;;;8.47;;
80776;SDS011;70169;51.262;6.336;2024-01-06T03:43:12;13.90;;;7.63;;
80776;SDS011;70169;51.262;6.336;2024-01-06T03:45:28;14.37;;;7.90;;
80776;SDS011;70169;51.262;6.336;2024-01-06T03:47:43;15.77;;;8.43;;
80776;SDS011;70169;51.262;6.336;2024-01-06T03:49:58;15.53;;;8.23;;
80776;SDS011;70169;51.262;6.336;2024-01-06T03:52:14;12.43;;;7.05;;
80776;SDS011;70169;51.262;6.336;2024-01-06T03:54:29;15.15;;;8.68;;
80776;SDS011;70169;51.262;6.336;2024-01-06T03:56:44;13.37;;;7.27;;
80776;SDS011;70169;51.262;6.336;2024-01-06T03:59:00;13.90;;;7.70;;
80776;SDS011;70169;51.262;6.336;2024-01-06T04:01:15;11.90;;;6.77;;
80776;SDS011;70169;51.262;6.336;2024-01-06T04:03:30;13.63;;;8.30;;
80776;SDS011;70169;51.262;6.336;2024-01-06T04:05:45;13.30;;;7.00;;
80776;SDS011;70169;51.262;6.336;2024-01-06T04:08:01;12.27;;;6.57;;
80776;SDS011;70169;51.262;6.336;2024-01-06T04:10:16;14.70;;;7.37;;
80776;SDS011;70169;51.262;6.336;2024-01-06T04:12:31;11.77;;;6.35;;
80776;SDS011;70169;51.262;6.336;2024-01-06T04:14:47;12.82;;;7.30;;
80776;SDS011;70169;51.262;6.336;2024-01-06T04:17:02;13.00;;;6.83;;
80776;SDS011;70169;51.262;6.336;2024-01-06T04:19:17;14.53;;;6.73;;
80776;SDS011;70169;51.262;6.336;2024-01-06T04:21:33;11.80;;;6.40;;
80776;SDS011;70169;51.262;6.336;2024-01-06T04:23:48;11.70;;;6.10;;
80776;SDS011;70169;51.262;6.336;2024-01-06T04:26:03;10.80;;;6.13;;
80776;SDS011;70169;51.262;6.336;2024-01-06T04:28:19;10.77;;;5.90;;
80776;SDS011;70169;51.262;6.336;2024-01-06T04:30:35;11.25;;;6.85;;
80776;SDS011;70169;51.262;6.336;2024-01-06T04:32:50;10.70;;;5.77;;
80776;SDS011;70169;51.262;6.336;2024-01-06T04:35:06;12.70;;;6.63;;
80776;SDS011;70169;51.262;6.336;2024-01-06T04:37:22;10.95;;;5.70;;
80776;SDS011;70169;51.262;6.336;2024-01-06T04:39:37;9.43;;;5.18;;
80776;SDS011;70169;51.262;6.336;2024-01-06T04:41:53;11.27;;;5.93;;
80776;SDS011;70169;51.262;6.336;2024-01-06T04:44:08;11.03;;;5.87;;
80776;SDS011;70169;51.262;6.336;2024-01-06T04:46:23;10.87;;;5.77;;
80776;SDS011;70169;51.262;6.336;2024-01-06T04:48:40;11.23;;;6.10;;
80776;SDS011;70169;51.262;6.336;2024-01-06T04:50:56;9.82;;;5.30;;
80776;SDS011;70169;51.262;6.336;2024-01-06T04:53:11;10.30;;;5.50;;
80776;SDS011;70169;51.262;6.336;2024-01-06T04:55:27;12.10;;;6.23;;
80776;SDS011;70169;51.262;6.336;2024-01-06T04:57:42;10.93;;;6.03;;
80776;SDS011;70169;51.262;6.336;2024-01-06T04:59:57;11.90;;;6.03;;
80776;SDS011;70169;51.262;6.336;2024-01-06T05:02:13;12.68;;;7.00;;
80776;SDS011;70169;51.262;6.336;2024-01-06T05:04:28;12.85;;;6.43;;
80776;SDS011;70169;51.262;6.336;2024-01-06T05:09:01;11.87;;;5.87;;
80776;SDS011;70169;51.262;6.336;2024-01-06T05:11:16;12.27;;;6.57;;
80776;SDS011;70169;51.262;6.336;2024-01-06T05:13:31;12.55;;;6.45;;
80776;SDS011;70169;51.262;6.336;2024-01-06T05:15:46;10.10;;;6.40;;
80776;SDS011;70169;51.262;6.336;2024-01-06T05:18:02;11.95;;;6.40;;
80776;SDS011;70169;51.262;6.336;2024-01-06T05:20:17;11.88;;;6.18;;
80776;SDS011;70169;51.262;6.336;2024-01-06T05:22:33;12.00;;;6.43;;
80776;SDS011;70169;51.262;6.336;2024-01-06T05:24:48;12.20;;;6.53;;
80776;SDS011;70169;51.262;6.336;2024-01-06T05:27:03;11.07;;;6.20;;
80776;SDS011;70169;51.262;6.336;2024-01-06T05:29:19;10.52;;;6.05;;
80776;SDS011;70169;51.262;6.336;2024-01-06T05:31:34;10.17;;;4.77;;
80776;SDS011;70169;51.262;6.336;2024-01-06T05:33:50;12.43;;;6.37;;
80776;SDS011;70169;51.262;6.336;2024-01-06T05:36:05;11.60;;;6.63;;
80776;SDS011;70169;51.262;6.336;2024-01-06T05:38:21;11.77;;;5.78;;
80776;SDS011;70169;51.262;6.336;2024-01-06T05:40:36;9.93;;;5.50;;
80776;SDS011;70169;51.262;6.336;2024-01-06T05:42:51;8.57;;;5.30;;
80776;SDS011;70169;51.262;6.336;2024-01-06T05:45:10;13.05;;;6.25;;
80776;SDS011;70169;51.262;6.336;2024-01-06T05:47:30;9.30;;;4.97;;
80776;SDS011;70169;51.262;6.336;2024-01-06T05:49:45;12.05;;;6.93;;
80776;SDS011;70169;51.262;6.336;2024-01-06T05:52:00;11.03;;;6.17;;
80776;SDS011;70169;51.262;6.336;2024-01-06T05:54:16;10.33;;;6.03;;
80776;SDS011;70169;51.262;6.336;2024-01-06T05:56:31;11.67;;;5.50;;
80776;SDS011;70169;51.262;6.336;2024-01-06T05:58:46;11.97;;;6.57;;
80776;SDS011;70169;51.262;6.336;2024-01-06T06:01:02;11.95;;;6.00;;
80776;SDS011;70169;51.262;6.336;2024-01-06T06:03:17;10.05;;;5.43;;
80776;SDS011;70169;51.262;6.336;2024-01-06T06:05:33;13.00;;;6.73;;
80776;SDS011;70169;51.262;6.336;2024-01-06T06:07:48;13.80;;;5.90;;
80776;SDS011;70169;51.262;6.336;2024-01-06T06:10:04;9.90;;;5.67;;
80776;SDS011;70169;51.262;6.336;2024-01-06T06:12:23;11.80;;;5.93;;
80776;SDS011;70169;51.262;6.336;2024-01-06T06:14:38;12.40;;;6.70;;
80776;SDS011;70169;51.262;6.336;2024-01-06T06:16:53;11.00;;;5.75;;
80776;SDS011;70169;51.262;6.336;2024-01-06T06:19:09;12.37;;;6.50;;
80776;SDS011;70169;51.262;6.336;2024-01-06T06:21:24;13.83;;;6.47;;
80776;SDS011;70169;51.262;6.336;2024-01-06T06:23:39;10.50;;;5.50;;
80776;SDS011;70169;51.262;6.336;2024-01-06T06:25:54;12.23;;;6.35;;
80776;SDS011;70169;51.262;6.336;2024-01-06T06:28:10;12.40;;;6.60;;
80776;SDS011;70169;51.262;6.336;2024-01-06T06:30:25;12.20;;;6.17;;
80776;SDS011;70169;51.262;6.336;2024-01-06T06:32:41;12.88;;;7.13;;
80776;SDS011;70169;51.262;6.336;2024-01-06T06:34:57;14.80;;;6.97;;
80776;SDS011;70169;51.262;6.336;2024-01-06T06:37:12;13.40;;;7.00;;
80776;SDS011;70169;51.262;6.336;2024-01-06T06:39:27;13.27;;;7.40;;
80776;SDS011;70169;51.262;6.336;2024-01-06T06:41:43;13.07;;;7.57;;
80776;SDS011;70169;51.262;6.336;2024-01-06T06:43:59;12.30;;;6.97;;
80776;SDS011;70169;51.262;6.336;2024-01-06T06:46:15;14.85;;;6.95;;
80776;SDS011;70169;51.262;6.336;2024-01-06T06:48:30;11.83;;;6.07;;
80776;SDS011;70169;51.262;6.336;2024-01-06T06:50:45;14.17;;;7.67;;
80776;SDS011;70169;51.262;6.336;2024-01-06T06:53:00;9.83;;;5.83;;
80776;SDS011;70169;51.262;6.336;2024-01-06T06:55:16;12.80;;;6.43;;
80776;SDS011;70169;51.262;6.336;2024-01-06T06:57:31;13.93;;;6.83;;
80776;SDS011;70169;51.262;6.336;2024-01-06T06:59:47;12.05;;;5.85;;
80776;SDS011;70169;51.262;6.336;2024-01-06T07:02:03;12.60;;;6.90;;
80776;SDS011;70169;51.262;6.336;2024-01-06T07:04:18;11.15;;;6.65;;
80776;SDS011;70169;51.262;6.336;2024-01-06T07:06:33;12.23;;;6.40;;
80776;SDS011;70169;51.262;6.336;2024-01-06T07:08:49;11.67;;;5.70;;
80776;SDS011;70169;51.262;6.336;2024-01-06T07:11:04;9.87;;;5.37;;
80776;SDS011;70169;51.262;6.336;2024-01-06T07:13:19;11.43;;;5.97;;
80776;SDS011;70169;51.262;6.336;2024-01-06T07:15:34;12.10;;;5.90;;
80776;SDS011;70169;51.262;6.336;2024-01-06T07:17:50;11.07;;;5.73;;
80776;SDS011;70169;51.262;6.336;2024-01-06T07:20:06;9.90;;;5.27;;
80776;SDS011;70169;51.262;6.336;2024-01-06T07:22:22;9.80;;;5.13;;
80776;SDS011;70169;51.262;6.336;2024-01-06T07:24:37;11.13;;;5.70;;
80776;SDS011;70169;51.262;6.336;2024-01-06T07:26:52;10.83;;;5.67;;
80776;SDS011;70169;51.262;6.336;2024-01-06T07:29:07;10.90;;;6.20;;
80776;SDS011;70169;51.262;6.336;2024-01-06T07:31:23;9.87;;;5.03;;
80776;SDS011;70169;51.262;6.336;2024-01-06T07:33:38;12.90;;;6.53;;
80776;SDS011;70169;51.262;6.336;2024-01-06T07:35:54;12.23;;;6.25;;
80776;SDS011;70169;51.262;6.336;2024-01-06T07:38:10;10.02;;;5.68;;
80776;SDS011;70169;51.262;6.336;2024-01-06T07:40:25;10.97;;;6.50;;
80776;SDS011;70169;51.262;6.336;2024-01-06T07:42:41;10.40;;;6.07;;
80776;SDS011;70169;51.262;6.336;2024-01-06T07:44:56;10.68;;;5.30;;
80776;SDS011;70169;51.262;6.336;2024-01-06T07:47:11;9.47;;;5.40;;
80776;SDS011;70169;51.262;6.336;2024-01-06T07:49:27;10.13;;;5.70;;
80776;SDS011;70169;51.262;6.336;2024-01-06T07:51:42;11.82;;;7.07;;
80776;SDS011;70169;51.262;6.336;2024-01-06T07:53:58;10.00;;;5.20;;
80776;SDS011;70169;51.262;6.336;2024-01-06T07:56:13;12.57;;;6.55;;
80776;SDS011;70169;51.262;6.336;2024-01-06T07:58:28;10.67;;;5.93;;
80776;SDS011;70169;51.262;6.336;2024-01-06T08:00:44;11.52;;;6.45;;
80776;SDS011;70169;51.262;6.336;2024-01-06T08:02:59;11.17;;;5.90;;
80776;SDS011;70169;51.262;6.336;2024-01-06T08:05:15;9.75;;;5.53;;
80776;SDS011;70169;51.262;6.336;2024-01-06T08:07:30;10.37;;;5.63;;
80776;SDS011;70169;51.262;6.336;2024-01-06T08:09:45;9.73;;;5.77;;
80776;SDS011;70169;51.262;6.336;2024-01-06T08:12:01;9.27;;;5.07;;
80776;SDS011;70169;51.262;6.336;2024-01-06T08:14:17;11.68;;;5.78;;
80776;SDS011;70169;51.262;6.336;2024-01-06T08:16:33;11.33;;;6.17;;
80776;SDS011;70169;51.262;6.336;2024-01-06T08:18:48;11.35;;;5.57;;
80776;SDS011;70169;51.262;6.336;2024-01-06T08:21:03;11.67;;;5.53;;
80776;SDS011;70169;51.262;6.336;2024-01-06T08:23:19;13.20;;;7.03;;
80776;SDS011;70169;51.262;6.336;2024-01-06T08:25:35;10.77;;;6.18;;
80776;SDS011;70169;51.262;6.336;2024-01-06T08:27:51;9.45;;;5.25;;
80776;SDS011;70169;51.262;6.336;2024-01-06T08:30:06;12.10;;;6.20;;
80776;SDS011;70169;51.262;6.336;2024-01-06T08:32:22;9.50;;;5.05;;
80776;SDS011;70169;51.262;6.336;2024-01-06T08:34:38;10.82;;;6.13;;
80776;SDS011;70169;51.262;6.336;2024-01-06T08:36:53;10.35;;;6.05;;
80776;SDS011;70169;51.262;6.336;2024-01-06T08:39:09;11.95;;;6.40;;
80776;SDS011;70169;51.262;6.336;2024-01-06T08:41:24;12.70;;;6.53;;
80776;SDS011;70169;51.262;6.336;2024-01-06T08:43:40;12.40;;;6.60;;
80776;SDS011;70169;51.262;6.336;2024-01-06T08:45:55;10.68;;;6.28;;
80776;SDS011;70169;51.262;6.336;2024-01-06T08:48:11;11.55;;;6.45;;
80776;SDS011;70169;51.262;6.336;2024-01-06T08:52:43;10.80;;;6.20;;
80776;SDS011;70169;51.262;6.336;2024-01-06T08:54:59;11.68;;;6.70;;
80776;SDS011;70169;51.262;6.336;2024-01-06T08:57:14;15.60;;;7.97;;
80776;SDS011;70169;51.262;6.336;2024-01-06T08:59:29;10.18;;;5.85;;
80776;SDS011;70169;51.262;6.336;2024-01-06T09:01:45;12.55;;;6.63;;
80776;SDS011;70169;51.262;6.336;2024-01-06T09:04:00;14.15;;;7.55;;
80776;SDS011;70169;51.262;6.336;2024-01-06T09:06:16;11.20;;;6.38;;
80776;SDS011;70169;51.262;6.336;2024-01-06T09:08:31;14.05;;;7.50;;
80776;SDS011;70169;51.262;6.336;2024-01-06T09:10:47;11.57;;;6.72;;
80776;SDS011;70169;51.262;6.336;2024-01-06T09:13:03;13.15;;;6.50;;
80776;SDS011;70169;51.262;6.336;2024-01-06T09:15:18;13.65;;;6.85;;
80776;SDS011;70169;51.262;6.336;2024-01-06T09:17:34;13.45;;;8.43;;
80776;SDS011;70169;51.262;6.336;2024-01-06T09:19:49;12.45;;;6.70;;
80776;SDS011;70169;51.262;6.336;2024-01-06T09:22:05;14.87;;;6.93;;
80776;SDS011;70169;51.262;6.336;2024-01-06T09:24:20;15.53;;;8.30;;
80776;SDS011;70169;51.262;6.336;2024-01-06T09:26:35;14.82;;;7.63;;
80776;SDS011;70169;51.262;6.336;2024-01-06T09:28:51;12.20;;;6.43;;
80776;SDS011;70169;51.262;6.336;2024-01-06T09:31:06;11.10;;;6.43;;
80776;SDS011;70169;51.262;6.336;2024-01-06T09:33:22;14.10;;;6.97;;
80776;SDS011;70169;51.262;6.336;2024-01-06T09:35:38;13.75;;;6.45;;
80776;SDS011;70169;51.262;6.336;2024-01-06T09:37:53;14.30;;;6.73;;
80776;SDS011;70169;51.262;6.336;2024-01-06T09:40:11;13.00;;;6.65;;
80776;SDS011;70169;51.262;6.336;2024-01-06T09:42:28;16.55;;;8.00;;
80776;SDS011;70169;51.262;6.336;2024-01-06T09:44:44;14.25;;;7.10;;
80776;SDS011;70169;51.262;6.336;2024-01-06T09:46:59;15.70;;;7.20;;
80776;SDS011;70169;51.262;6.336;2024-01-06T09:49:18;15.63;;;7.18;;
80776;SDS011;70169;51.262;6.336;2024-01-06T09:51:39;14.40;;;7.50;;
80776;SDS011;70169;51.262;6.336;2024-01-06T09:53:58;15.20;;;7.47;;
80776;SDS011;70169;51.262;6.336;2024-01-06T09:56:16;14.25;;;7.05;;
80776;SDS011;70169;51.262;6.336;2024-01-06T09:58:32;16.05;;;8.25;;
80776;SDS011;70169;51.262;6.336;2024-01-06T10:00:50;15.32;;;7.53;;
80776;SDS011;70169;51.262;6.336;2024-01-06T10:03:06;17.30;;;7.85;;
80776;SDS011;70169;51.262;6.336;2024-01-06T10:05:23;12.65;;;6.53;;
80776;SDS011;70169;51.262;6.336;2024-01-06T10:07:41;14.93;;;7.30;;
80776;SDS011;70169;51.262;6.336;2024-01-06T10:09:57;12.30;;;6.70;;
80776;SDS011;70169;51.262;6.336;2024-01-06T10:12:12;12.07;;;6.80;;
80776;SDS011;70169;51.262;6.336;2024-01-06T10:14:27;14.43;;;7.43;;
80776;SDS011;70169;51.262;6.336;2024-01-06T10:16:43;14.65;;;7.03;;
80776;SDS011;70169;51.262;6.336;2024-01-06T10:18:58;12.93;;;6.43;;
80776;SDS011;70169;51.262;6.336;2024-01-06T10:21:14;13.43;;;5.95;;
80776;SDS011;70169;51.262;6.336;2024-01-06T10:23:32;16.35;;;8.23;;
80776;SDS011;70169;51.262;6.336;2024-01-06T10:25:51;16.90;;;8.93;;
80776;SDS011;70169;51.262;6.336;2024-01-06T10:28:07;11.98;;;6.22;;
80776;SDS011;70169;51.262;6.336;2024-01-06T10:30:25;14.95;;;7.40;;
80776;SDS011;70169;51.262;6.336;2024-01-06T10:32:41;13.37;;;6.80;;
80776;SDS011;70169;51.262;6.336;2024-01-06T10:34:56;13.07;;;6.63;;
80776;SDS011;70169;51.262;6.336;2024-01-06T10:37:11;12.77;;;6.70;;
80776;SDS011;70169;51.262;6.336;2024-01-06T10:39:27;13.45;;;7.22;;
80776;SDS011;70169;51.262;6.336;2024-01-06T10:41:45;14.73;;;7.35;;
80776;SDS011;70169;51.262;6.336;2024-01-06T10:44:03;11.85;;;6.10;;
80776;SDS011;70169;51.262;6.336;2024-01-06T10:46:21;13.75;;;7.47;;
80776;SDS011;70169;51.262;6.336;2024-01-06T10:48:38;13.18;;;6.13;;
80776;SDS011;70169;51.262;6.336;2024-01-06T10:50:57;13.10;;;6.53;;
80776;SDS011;70169;51.262;6.336;2024-01-06T10:53:13;12.27;;;6.35;;
80776;SDS011;70169;51.262;6.336;2024-01-06T10:55:31;15.38;;;6.82;;
80776;SDS011;70169;51.262;6.336;2024-01-06T10:57:47;12.13;;;5.50;;
80776;SDS011;70169;51.262;6.336;2024-01-06T11:00:03;11.70;;;5.40;;
80776;SDS011;70169;51.262;6.336;2024-01-06T11:02:20;9.20;;;4.68;;
80776;SDS011;70169;51.262;6.336;2024-01-06T11:04:35;12.87;;;6.40;;
80776;SDS011;70169;51.262;6.336;2024-01-06T11:06:51;10.77;;;5.47;;
80776;SDS011;70169;51.262;6.336;2024-01-06T11:09:14;13.23;;;6.38;;
80776;SDS011;70169;51.262;6.336;2024-01-06T11:11:35;13.63;;;6.45;;
80776;SDS011;70169;51.262;6.336;2024-01-06T11:16:07;13.03;;;6.20;;
80776;SDS011;70169;51.262;6.336;2024-01-06T11:23:27;12.23;;;6.50;;
80776;SDS011;70169;51.262;6.336;2024-01-06T11:25:43;14.15;;;6.85;;
80776;SDS011;70169;51.262;6.336;2024-01-06T11:27:59;13.88;;;6.88;;
80776;SDS011;70169;51.262;6.336;2024-01-06T11:30:23;13.77;;;7.32;;
80776;SDS011;70169;51.262;6.336;2024-01-06T11:32:40;12.52;;;6.38;;
80776;SDS011;70169;51.262;6.336;2024-01-06T11:35:04;16.52;;;8.43;;
80776;SDS011;70169;51.262;6.336;2024-01-06T11:37:24;14.52;;;7.03;;
80776;SDS011;70169;51.262;6.336;2024-01-06T11:39:53;18.00;;;8.40;;
80776;SDS011;70169;51.262;6.336;2024-01-06T11:42:11;14.37;;;7.70;;
80776;SDS011;70169;51.262;6.336;2024-01-06T11:44:28;14.25;;;7.03;;
80776;SDS011;70169;51.262;6.336;2024-01-06T11:46:43;14.90;;;7.13;;
80776;SDS011;70169;51.262;6.336;2024-01-06T11:49:00;17.65;;;8.65;;
80776;SDS011;70169;51.262;6.336;2024-01-06T11:51:16;16.02;;;7.15;;
80776;SDS011;70169;51.262;6.336;2024-01-06T11:53:32;17.80;;;8.10;;
80776;SDS011;70169;51.262;6.336;2024-01-06T11:55:50;14.73;;;7.78;;
80776;SDS011;70169;51.262;6.336;2024-01-06T11:58:06;12.00;;;6.65;;
80776;SDS011;70169;51.262;6.336;2024-01-06T12:00:22;15.82;;;7.60;;
80776;SDS011;70169;51.262;6.336;2024-01-06T12:02:37;14.23;;;7.10;;
80776;SDS011;70169;51.262;6.336;2024-01-06T12:04:52;14.37;;;8.20;;
80776;SDS011;70169;51.262;6.336;2024-01-06T12:07:08;16.42;;;8.43;;
80776;SDS011;70169;51.262;6.336;2024-01-06T12:09:24;14.10;;;7.40;;
80776;SDS011;70169;51.262;6.336;2024-01-06T12:11:41;15.77;;;7.95;;
80776;SDS011;70169;51.262;6.336;2024-01-06T12:14:00;15.60;;;7.95;;
80776;SDS011;70169;51.262;6.336;2024-01-06T12:16:15;16.47;;;8.93;;
80776;SDS011;70169;51.262;6.336;2024-01-06T12:18:30;14.90;;;8.23;;
80776;SDS011;70169;51.262;6.336;2024-01-06T12:20:46;18.67;;;9.03;;
80776;SDS011;70169;51.262;6.336;2024-01-06T12:23:01;14.03;;;8.40;;
80776;SDS011;70169;51.262;6.336;2024-01-06T12:25:21;20.45;;;9.70;;
80776;SDS011;70169;51.262;6.336;2024-01-06T12:27:41;19.27;;;8.85;;
80776;SDS011;70169;51.262;6.336;2024-01-06T12:29:57;14.63;;;8.63;;
80776;SDS011;70169;51.262;6.336;2024-01-06T12:32:12;16.13;;;8.20;;
80776;SDS011;70169;51.262;6.336;2024-01-06T12:34:28;14.50;;;7.15;;
80776;SDS011;70169;51.262;6.336;2024-01-06T12:36:43;14.77;;;7.03;;
80776;SDS011;70169;51.262;6.336;2024-01-06T12:38:59;14.73;;;7.65;;
80776;SDS011;70169;51.262;6.336;2024-01-06T12:41:14;16.37;;;9.20;;
80776;SDS011;70169;51.262;6.336;2024-01-06T12:43:29;18.33;;;9.02;;
80776;SDS011;70169;51.262;6.336;2024-01-06T12:45:45;21.03;;;10.20;;
80776;SDS011;70169;51.262;6.336;2024-01-06T12:48:00;17.90;;;9.27;;
80776;SDS011;70169;51.262;6.336;2024-01-06T12:50:16;17.90;;;10.73;;
80776;SDS011;70169;51.262;6.336;2024-01-06T12:52:31;16.93;;;8.53;;
80776;SDS011;70169;51.262;6.336;2024-01-06T12:57:04;16.97;;;9.07;;
80776;SDS011;70169;51.262;6.336;2024-01-06T12:59:19;18.80;;;8.80;;
80776;SDS011;70169;51.262;6.336;2024-01-06T13:01:34;19.33;;;10.60;;
80776;SDS011;70169;51.262;6.336;2024-01-06T13:03:50;18.83;;;9.53;;
80776;SDS011;70169;51.262;6.336;2024-01-06T13:06:06;20.23;;;11.18;;
80776;SDS011;70169;51.262;6.336;2024-01-06T13:08:22;21.85;;;10.65;;
80776;SDS011;70169;51.262;6.336;2024-01-06T13:10:37;20.40;;;9.47;;
80776;SDS011;70169;51.262;6.336;2024-01-06T13:12:53;16.83;;;9.57;;
80776;SDS011;70169;51.262;6.336;2024-01-06T13:15:08;14.23;;;7.68;;
80776;SDS011;70169;51.262;6.336;2024-01-06T13:17:26;14.98;;;8.05;;
80776;SDS011;70169;51.262;6.336;2024-01-06T13:19:42;15.27;;;8.30;;
80776;SDS011;70169;51.262;6.336;2024-01-06T13:21:57;16.75;;;9.20;;
80776;SDS011;70169;51.262;6.336;2024-01-06T13:24:12;17.80;;;9.50;;
80776;SDS011;70169;51.262;6.336;2024-01-06T13:26:28;15.10;;;7.78;;
80776;SDS011;70169;51.262;6.336;2024-01-06T13:28:43;14.15;;;7.40;;
80776;SDS011;70169;51.262;6.336;2024-01-06T13:30:58;13.43;;;7.57;;
80776;SDS011;70169;51.262;6.336;2024-01-06T13:33:14;13.77;;;7.63;;
80776;SDS011;70169;51.262;6.336;2024-01-06T13:35:29;13.23;;;7.33;;
80776;SDS011;70169;51.262;6.336;2024-01-06T13:37:46;16.95;;;8.73;;
80776;SDS011;70169;51.262;6.336;2024-01-06T13:40:03;18.35;;;9.32;;